Baldwin, Arkansas
Current Conditions -  °F | °C
As of 1:53 AM on Saturday 20 Dec 2014 (Local Time) from KFYV Reporting Station
Overcast Overcast  
Wind Chill: 40°   Ceiling: 600
Heat Index: 40°   Visibility: 7mi
Dew Point: 40°   Wind: 0mph
Humidity: 100%   Direction: NA
Pressure: 30.19"   Gusts: NA
Location:  35.9902°N, 94.083°W
Report Text: KFYV 200753Z AUTO 00000KT 7SM OVC006 04/04 A3019 RMK AO2 SLP228 T00440044 $
Loading
Personal Weather Stations






























Interactive Weather Map New forecast layout! Learn more

10-Day Weather Forecast

Advertisements
Track Severe Weather on mobile